Time;durP1;ratioP1;P1;durP2;ratioP2;P2;SDS_P1;SDS_P2;PMS_P1;PMS_P2;Temp;Humidity;BMP_temperature;BMP_pressure;BME280_temperature;BME280_humidity;BME280_pressure;Samples;Min_cycle;Max_cycle;Signal;HPM_P1;HPM_P2
2023/05/02 00:00:37;;;;;;;13.10;12.40;;;;;;;;;;5008302;28;20479;-64
2023/05/02 00:03:03;;;;;;;14.20;13.40;;;;;;;;;;5010526;28;20046;-63
2023/05/02 00:05:28;;;;;;;13.93;13.13;;;;;;;;;;5010466;28;20022;-64
2023/05/02 00:07:53;;;;;;;13.05;12.35;;;;;;;;;;5010698;28;20358;-63
2023/05/02 00:10:19;;;;;;;12.82;12.18;;;;;;;;;;5005373;28;20022;-64
2023/05/02 00:12:44;;;;;;;13.50;12.80;;;;;;;;;;5009220;28;20034;-64
2023/05/02 00:15:09;;;;;;;14.35;13.48;;;;;;;;;;5012426;28;20418;-64
2023/05/02 00:17:35;;;;;;;13.70;13.00;;;;;;;;;;5008834;28;20135;-63
2023/05/02 00:20:03;;;;;;;13.40;12.70;;;;;;;;;;5011738;28;20021;-63
2023/05/02 00:22:28;;;;;;;13.80;13.10;;;;;;;;;;5011886;28;20351;-64
2023/05/02 00:24:57;;;;;;;13.82;13.13;;;;;;;;;;5010967;28;20034;-64
2023/05/02 00:27:23;;;;;;;14.80;13.90;;;;;;;;;;5009678;28;20030;-63
2023/05/02 00:29:48;;;;;;;14.10;13.35;;;;;;;;;;5015067;28;20018;-63
2023/05/02 00:32:13;;;;;;;14.63;13.82;;;;;;;;;;4996086;28;20072;-63
2023/05/02 00:34:39;;;;;;;14.80;13.95;;;;;;;;;;4998671;28;20053;-63
2023/05/02 00:37:05;;;;;;;15.50;14.50;;;;;;;;;;4998184;28;20458;-63
2023/05/02 00:39:30;;;;;;;15.20;14.27;;;;;;;;;;5003978;28;20029;-63
2023/05/02 00:41:56;;;;;;;14.75;13.85;;;;;;;;;;5009660;28;20029;-63
2023/05/02 00:44:21;;;;;;;13.50;12.80;;;;;;;;;;5014266;28;20068;-63
2023/05/02 00:46:47;;;;;;;13.70;13.00;;;;;;;;;;5008872;28;20417;-63
2023/05/02 00:49:12;;;;;;;14.07;13.27;;;;;;;;;;5011883;28;20026;-64
2023/05/02 00:51:38;;;;;;;14.27;13.48;;;;;;;;;;5013624;28;20363;-63
2023/05/02 00:54:04;;;;;;;15.68;14.68;;;;;;;;;;5008489;28;20014;-63
2023/05/02 00:56:29;;;;;;;13.35;12.73;;;;;;;;;;5002283;28;20022;-64
2023/05/02 00:58:56;;;;;;;14.88;13.98;;;;;;;;;;5013125;28;20025;-64
2023/05/02 01:01:31;;;;;;;14.23;13.43;;;;;;;;;;5007416;28;20128;-64
2023/05/02 01:03:59;;;;;;;15.00;14.10;;;;;;;;;;5013530;28;20034;-63
2023/05/02 01:06:43;;;;;;;14.55;13.75;;;;;;;;;;5010031;28;20026;-64
2023/05/02 01:09:20;;;;;;;14.02;13.23;;;;;;;;;;5008237;28;20084;-65
2023/05/02 01:11:52;;;;;;;13.50;12.80;;;;;;;;;;5013870;28;20058;-63
2023/05/02 01:14:17;;;;;;;13.85;13.05;;;;;;;;;;5013011;28;20018;-63
2023/05/02 01:16:44;;;;;;;14.35;13.55;;;;;;;;;;5013677;28;20018;-65
2023/05/02 01:19:24;;;;;;;14.50;13.70;;;;;;;;;;5006718;28;20014;-63
2023/05/02 01:21:50;;;;;;;15.50;14.50;;;;;;;;;;5002356;28;20105;-64
2023/05/02 01:24:21;;;;;;;14.85;13.98;;;;;;;;;;5013212;28;20418;-65
2023/05/02 01:26:56;;;;;;;14.43;13.63;;;;;;;;;;4999574;28;20025;-64
2023/05/02 01:29:22;;;;;;;13.77;13.07;;;;;;;;;;5008591;28;20033;-64
2023/05/02 01:31:49;;;;;;;13.82;13.13;;;;;;;;;;5012794;28;20030;-64
2023/05/02 01:34:15;;;;;;;15.00;14.20;;;;;;;;;;5012966;28;20481;-64
2023/05/02 01:36:45;;;;;;;16.00;15.00;;;;;;;;;;5010748;28;20010;-64
2023/05/02 01:39:13;;;;;;;14.85;14.05;;;;;;;;;;5008193;28;20014;-64
2023/05/02 01:41:39;;;;;;;14.98;14.10;;;;;;;;;;5004602;28;20064;-64
2023/05/02 01:44:05;;;;;;;15.43;14.52;;;;;;;;;;5012958;28;20021;-64
2023/05/02 01:46:35;;;;;;;14.05;13.35;;;;;;;;;;5013098;28;20053;-64
2023/05/02 01:49:05;;;;;;;15.38;14.48;;;;;;;;;;5010396;28;20022;-63
2023/05/02 01:51:32;;;;;;;14.23;13.43;;;;;;;;;;5010547;28;20440;-64
2023/05/02 01:53:59;;;;;;;14.18;13.38;;;;;;;;;;5013378;28;20026;-64
2023/05/02 01:56:25;;;;;;;14.35;13.55;;;;;;;;;;5010408;28;20022;-64
2023/05/02 01:58:52;;;;;;;14.85;13.95;;;;;;;;;;5012316;28;20041;-63
2023/05/02 02:01:17;;;;;;;14.15;13.35;;;;;;;;;;5006587;28;20057;-63
2023/05/02 02:03:43;;;;;;;14.73;13.85;;;;;;;;;;5011697;28;20509;-64
2023/05/02 02:06:09;;;;;;;14.32;13.50;;;;;;;;;;5012065;28;20018;-64
2023/05/02 02:08:34;;;;;;;13.57;12.88;;;;;;;;;;5012335;28;20685;-64
2023/05/02 02:11:03;;;;;;;15.00;14.13;;;;;;;;;;5012080;28;20061;-64
2023/05/02 02:13:38;;;;;;;15.05;14.15;;;;;;;;;;5012391;28;20025;-63
2023/05/02 02:16:04;;;;;;;14.40;13.60;;;;;;;;;;5001364;28;20396;-63
2023/05/02 02:18:34;;;;;;;14.02;13.23;;;;;;;;;;5012305;28;20018;-63
2023/05/02 02:20:59;;;;;;;14.65;13.85;;;;;;;;;;5011805;28;20029;-63
2023/05/02 02:23:26;;;;;;;14.73;13.93;;;;;;;;;;5005789;28;20026;-63
2023/05/02 02:25:53;;;;;;;16.13;15.02;;;;;;;;;;5000157;28;20097;-63
2023/05/02 02:28:18;;;;;;;14.07;13.38;;;;;;;;;;5012365;28;20018;-64
2023/05/02 02:30:43;;;;;;;14.88;14.07;;;;;;;;;;5000840;28;20014;-64
2023/05/02 02:33:09;;;;;;;15.07;14.27;;;;;;;;;;5008582;28;20018;-64
2023/05/02 02:35:40;;;;;;;16.73;15.73;;;;;;;;;;5041536;28;20389;-64
2023/05/02 02:38:24;;;;;;;16.92;15.82;;;;;;;;;;5011606;28;20022;-64
2023/05/02 02:41:12;;;;;;;15.43;14.63;;;;;;;;;;5026135;28;20014;-65
2023/05/02 02:43:37;;;;;;;16.73;15.70;;;;;;;;;;5011943;28;20397;-63
2023/05/02 02:46:15;;;;;;;16.45;15.45;;;;;;;;;;5010413;28;20018;-63
2023/05/02 02:48:40;;;;;;;16.42;15.43;;;;;;;;;;5011422;28;20034;-63
2023/05/02 02:51:11;;;;;;;16.60;15.50;;;;;;;;;;5009198;28;20029;-63
2023/05/02 02:53:40;;;;;;;15.30;14.50;;;;;;;;;;5004553;28;20021;-64
2023/05/02 02:56:11;;;;;;;16.63;15.55;;;;;;;;;;5010770;28;20022;-63
2023/05/02 02:58:48;;;;;;;15.20;14.40;;;;;;;;;;5011583;28;20014;-63
2023/05/02 03:01:20;;;;;;;15.32;14.43;;;;;;;;;;5000665;28;20018;-62
2023/05/02 03:03:47;;;;;;;15.23;14.32;;;;;;;;;;5011095;28;20440;-64
2023/05/02 03:06:12;;;;;;;16.10;15.05;;;;;;;;;;5006248;28;20025;-63
2023/05/02 03:08:41;;;;;;;14.75;13.88;;;;;;;;;;5001736;28;20124;-64
2023/05/02 03:11:07;;;;;;;14.75;13.85;;;;;;;;;;5017820;28;20022;-63
2023/05/02 03:13:32;;;;;;;13.57;12.88;;;;;;;;;;5003482;28;20033;-63
2023/05/02 03:16:16;;;;;;;13.90;13.10;;;;;;;;;;5011760;28;20014;-63
2023/05/02 03:18:41;;;;;;;13.77;13.00;;;;;;;;;;5011405;28;20100;-63
2023/05/02 03:21:07;;;;;;;13.30;12.60;;;;;;;;;;5008685;28;20489;-64
2023/05/02 03:23:32;;;;;;;13.30;12.60;;;;;;;;;;5011210;28;20025;-64
2023/05/02 03:25:57;;;;;;;13.60;12.80;;;;;;;;;;5010245;28;20026;-64
2023/05/02 03:28:23;;;;;;;13.60;12.80;;;;;;;;;;5011217;28;20022;-64
2023/05/02 03:30:48;;;;;;;13.15;12.45;;;;;;;;;;5009091;28;20018;-64
2023/05/02 03:33:13;;;;;;;13.80;13.00;;;;;;;;;;5009151;28;20018;-64
2023/05/02 03:35:39;;;;;;;13.77;12.98;;;;;;;;;;5006727;28;20018;-64
2023/05/02 03:38:04;;;;;;;13.23;12.52;;;;;;;;;;5011078;28;20025;-64
2023/05/02 03:40:29;;;;;;;12.80;12.20;;;;;;;;;;5009114;28;20014;-64
2023/05/02 03:42:54;;;;;;;13.32;12.63;;;;;;;;;;5011388;28;20030;-64
2023/05/02 03:45:20;;;;;;;13.13;12.43;;;;;;;;;;5006756;28;20105;-65
2023/05/02 03:47:45;;;;;;;12.05;11.45;;;;;;;;;;4994839;28;20015;-63
2023/05/02 03:50:11;;;;;;;12.90;12.30;;;;;;;;;;5000120;28;20395;-64
2023/05/02 03:52:36;;;;;;;12.50;11.90;;;;;;;;;;5015103;28;20601;-64
2023/05/02 03:55:02;;;;;;;13.40;12.70;;;;;;;;;;5013145;28;20014;-64
2023/05/02 03:57:30;;;;;;;12.50;11.90;;;;;;;;;;5011752;28;20500;-63
2023/05/02 03:59:55;;;;;;;12.85;12.25;;;;;;;;;;5009985;28;20100;-65
2023/05/02 04:02:20;;;;;;;12.80;12.20;;;;;;;;;;5012967;28;20129;-64
2023/05/02 04:04:46;;;;;;;12.50;11.90;;;;;;;;;;5013045;28;20101;-64
2023/05/02 04:07:17;;;;;;;13.18;12.57;;;;;;;;;;5007395;28;20080;-65
2023/05/02 04:09:42;;;;;;;12.85;12.25;;;;;;;;;;5007141;28;20026;-63
2023/05/02 04:12:08;;;;;;;13.18;12.57;;;;;;;;;;5011531;28;20096;-65
2023/05/02 04:14:33;;;;;;;12.52;11.93;;;;;;;;;;5014658;28;20432;-64
2023/05/02 04:16:58;;;;;;;12.60;12.00;;;;;;;;;;5008721;28;20030;-63
2023/05/02 04:19:24;;;;;;;12.90;12.30;;;;;;;;;;5011474;28;20021;-64
2023/05/02 04:21:49;;;;;;;12.77;12.18;;;;;;;;;;5013413;28;20049;-63
2023/05/02 04:24:14;;;;;;;13.05;12.45;;;;;;;;;;5014006;28;20022;-64
2023/05/02 04:26:40;;;;;;;12.55;11.95;;;;;;;;;;5016263;28;20025;-66
2023/05/02 04:29:05;;;;;;;12.90;12.30;;;;;;;;;;5009378;28;20030;-65
2023/05/02 04:31:31;;;;;;;12.65;12.05;;;;;;;;;;5011398;28;20056;-65
2023/05/02 04:33:56;;;;;;;12.65;12.05;;;;;;;;;;5009602;28;20088;-65
2023/05/02 04:36:23;;;;;;;12.93;12.32;;;;;;;;;;5012755;28;20107;-65
2023/05/02 04:38:48;;;;;;;13.45;12.85;;;;;;;;;;5011684;28;20045;-65
2023/05/02 04:41:13;;;;;;;12.60;12.00;;;;;;;;;;5002272;28;20477;-65
2023/05/02 04:43:39;;;;;;;13.13;12.52;;;;;;;;;;5011860;28;20248;-64
2023/05/02 04:46:04;;;;;;;13.23;12.63;;;;;;;;;;5013387;28;20105;-65
2023/05/02 04:48:30;;;;;;;12.90;12.30;;;;;;;;;;5013878;28;20058;-65
2023/05/02 04:50:55;;;;;;;12.45;11.85;;;;;;;;;;5008258;28;20037;-65
2023/05/02 04:53:21;;;;;;;13.10;12.50;;;;;;;;;;5013213;28;20025;-65
2023/05/02 04:55:46;;;;;;;12.20;11.65;;;;;;;;;;5013148;28;20017;-64
2023/05/02 04:58:12;;;;;;;12.70;12.10;;;;;;;;;;5007603;28;20484;-65
2023/05/02 05:00:37;;;;;;;13.20;12.60;;;;;;;;;;5009319;28;20026;-64
2023/05/02 05:03:03;;;;;;;12.30;11.70;;;;;;;;;;5012960;28;20050;-64
2023/05/02 05:05:28;;;;;;;12.43;11.85;;;;;;;;;;5009678;28;20045;-65
2023/05/02 05:07:53;;;;;;;12.68;12.07;;;;;;;;;;5013442;28;20026;-64
2023/05/02 05:10:19;;;;;;;12.45;11.85;;;;;;;;;;5013481;28;20026;-65
2023/05/02 05:12:45;;;;;;;12.52;11.93;;;;;;;;;;5012188;28;20056;-64
2023/05/02 05:15:10;;;;;;;12.10;11.60;;;;;;;;;;5013289;28;20022;-65
2023/05/02 05:17:36;;;;;;;12.15;11.63;;;;;;;;;;5012743;28;20029;-65
2023/05/02 05:20:02;;;;;;;12.00;11.50;;;;;;;;;;5013986;28;20030;-65
2023/05/02 05:22:27;;;;;;;12.38;11.82;;;;;;;;;;5012832;28;20030;-65
2023/05/02 05:24:53;;;;;;;12.73;12.13;;;;;;;;;;5014042;28;20092;-64
2023/05/02 05:27:18;;;;;;;12.13;11.63;;;;;;;;;;5012699;28;20100;-64
2023/05/02 05:29:43;;;;;;;12.23;11.73;;;;;;;;;;5010970;28;20136;-65
2023/05/02 05:32:09;;;;;;;11.97;11.47;;;;;;;;;;5008386;28;20069;-65
2023/05/02 05:34:34;;;;;;;12.15;11.65;;;;;;;;;;5012968;28;20274;-65
2023/05/02 05:37:00;;;;;;;12.82;12.23;;;;;;;;;;5011817;28;20485;-65
2023/05/02 05:39:25;;;;;;;12.33;11.80;;;;;;;;;;4997583;28;20065;-65
2023/05/02 05:41:51;;;;;;;12.35;11.85;;;;;;;;;;5003324;28;20259;-65
2023/05/02 05:44:16;;;;;;;12.20;11.70;;;;;;;;;;5012296;28;20072;-64
2023/05/02 05:46:42;;;;;;;11.90;11.40;;;;;;;;;;5011113;28;20030;-64
2023/05/02 05:49:07;;;;;;;12.52;11.93;;;;;;;;;;5012489;28;20076;-64
2023/05/02 05:51:32;;;;;;;12.40;11.88;;;;;;;;;;5012506;28;20468;-64
2023/05/02 05:53:58;;;;;;;12.13;11.63;;;;;;;;;;5009233;28;20065;-65
2023/05/02 05:56:23;;;;;;;12.00;11.50;;;;;;;;;;4999340;28;20038;-63
2023/05/02 05:58:48;;;;;;;11.80;11.30;;;;;;;;;;5011443;28;20018;-64
2023/05/02 06:01:14;;;;;;;12.23;11.73;;;;;;;;;;5004995;28;20248;-65
2023/05/02 06:03:39;;;;;;;11.93;11.43;;;;;;;;;;5010480;28;20391;-65
2023/05/02 06:06:05;;;;;;;12.05;11.55;;;;;;;;;;5005209;28;20248;-63
2023/05/02 06:08:31;;;;;;;11.52;11.02;;;;;;;;;;5011360;28;20413;-64
2023/05/02 06:10:56;;;;;;;12.07;11.57;;;;;;;;;;5013242;28;20022;-64
2023/05/02 06:13:22;;;;;;;11.97;11.47;;;;;;;;;;5011608;28;20048;-64
2023/05/02 06:15:47;;;;;;;11.98;11.48;;;;;;;;;;5011526;28;20339;-64
2023/05/02 06:18:13;;;;;;;11.82;11.32;;;;;;;;;;5011169;28;20054;-64
2023/05/02 06:20:38;;;;;;;11.70;11.20;;;;;;;;;;5007050;28;20453;-63
2023/05/02 06:23:03;;;;;;;12.07;11.57;;;;;;;;;;5011997;28;20057;-65
2023/05/02 06:25:29;;;;;;;11.80;11.30;;;;;;;;;;5012261;28;20057;-64
2023/05/02 06:27:54;;;;;;;12.55;11.95;;;;;;;;;;5010939;28;20042;-65
2023/05/02 06:30:19;;;;;;;11.82;11.32;;;;;;;;;;5011824;28;20128;-64
2023/05/02 06:32:45;;;;;;;11.90;11.40;;;;;;;;;;5012041;28;20544;-65
2023/05/02 06:35:11;;;;;;;12.10;11.60;;;;;;;;;;5011769;28;20385;-64
2023/05/02 06:37:36;;;;;;;11.90;11.40;;;;;;;;;;5010869;28;20017;-63
2023/05/02 06:40:01;;;;;;;12.03;11.53;;;;;;;;;;5001899;28;20038;-64
2023/05/02 06:42:28;;;;;;;12.10;11.60;;;;;;;;;;5010065;28;20806;-64
2023/05/02 06:44:53;;;;;;;11.80;11.30;;;;;;;;;;5012082;28;20022;-64
2023/05/02 06:47:18;;;;;;;11.90;11.40;;;;;;;;;;5011567;28;20385;-64
2023/05/02 06:49:44;;;;;;;11.90;11.40;;;;;;;;;;5006863;28;20036;-64
2023/05/02 06:52:09;;;;;;;13.10;12.50;;;;;;;;;;5008975;28;20271;-64
2023/05/02 06:54:35;;;;;;;12.93;12.32;;;;;;;;;;5001747;28;20762;-65
2023/05/02 06:57:01;;;;;;;12.75;12.15;;;;;;;;;;5008378;28;20037;-64
2023/05/02 06:59:26;;;;;;;12.57;11.98;;;;;;;;;;5002987;28;20426;-64
2023/05/02 07:01:51;;;;;;;12.25;11.75;;;;;;;;;;5010422;28;20029;-64
2023/05/02 07:04:17;;;;;;;12.23;11.73;;;;;;;;;;4999695;28;20121;-64
2023/05/02 07:06:42;;;;;;;12.82;12.23;;;;;;;;;;5011096;28;20255;-64
2023/05/02 07:09:07;;;;;;;12.20;11.70;;;;;;;;;;5006339;28;20053;-64
2023/05/02 07:11:33;;;;;;;12.05;11.55;;;;;;;;;;5011641;28;20018;-64
2023/05/02 07:13:58;;;;;;;12.70;12.10;;;;;;;;;;5006295;28;20025;-65
2023/05/02 07:16:23;;;;;;;12.80;12.20;;;;;;;;;;5011090;28;20029;-64
2023/05/02 07:18:49;;;;;;;12.75;12.15;;;;;;;;;;5011820;28;20030;-64
2023/05/02 07:21:14;;;;;;;12.40;11.80;;;;;;;;;;5011690;28;20521;-64
2023/05/02 07:23:40;;;;;;;12.10;11.60;;;;;;;;;;5008344;28;20076;-64
2023/05/02 07:26:05;;;;;;;12.27;11.77;;;;;;;;;;5010592;28;20053;-63
2023/05/02 07:28:31;;;;;;;12.25;11.75;;;;;;;;;;5007871;28;20269;-64
2023/05/02 07:30:56;;;;;;;12.18;11.68;;;;;;;;;;5007252;28;20099;-64
2023/05/02 07:33:22;;;;;;;12.07;11.57;;;;;;;;;;5010924;28;20113;-64
2023/05/02 07:35:48;;;;;;;12.10;11.60;;;;;;;;;;5005434;28;20052;-65
2023/05/02 07:38:13;;;;;;;12.05;11.55;;;;;;;;;;5010674;28;20013;-65
2023/05/02 07:40:38;;;;;;;11.90;11.40;;;;;;;;;;4999763;28;20026;-65
2023/05/02 07:43:04;;;;;;;12.15;11.65;;;;;;;;;;5011330;28;20313;-64
2023/05/02 07:45:29;;;;;;;12.02;11.52;;;;;;;;;;5007066;28;20033;-65
2023/05/02 07:47:56;;;;;;;12.70;12.10;;;;;;;;;;5011376;28;20030;-65
2023/05/02 07:50:22;;;;;;;12.35;11.75;;;;;;;;;;5013538;28;20623;-65
2023/05/02 07:52:47;;;;;;;11.90;11.40;;;;;;;;;;5011442;28;20096;-65
2023/05/02 07:55:14;;;;;;;12.80;12.20;;;;;;;;;;5002280;28;20393;-65
2023/05/02 07:57:39;;;;;;;12.73;12.13;;;;;;;;;;5010861;28;20022;-65
2023/05/02 08:00:08;;;;;;;13.05;12.45;;;;;;;;;;5010545;28;20168;-65
2023/05/02 08:02:35;;;;;;;12.68;12.07;;;;;;;;;;5003458;28;20119;-65
2023/05/02 08:05:01;;;;;;;13.27;12.60;;;;;;;;;;5007714;28;20133;-64
2023/05/02 08:07:26;;;;;;;13.88;13.18;;;;;;;;;;5010722;28;20105;-65
2023/05/02 08:09:51;;;;;;;13.40;12.70;;;;;;;;;;5000638;28;20018;-64
2023/05/02 08:12:17;;;;;;;12.95;12.32;;;;;;;;;;5010055;28;20057;-64
2023/05/02 08:14:42;;;;;;;13.30;12.60;;;;;;;;;;5007528;28;20029;-64
2023/05/02 08:17:07;;;;;;;13.10;12.48;;;;;;;;;;5003308;28;20007;-65
2023/05/02 08:19:33;;;;;;;13.10;12.48;;;;;;;;;;5007953;28;20018;-65
2023/05/02 08:21:58;;;;;;;13.60;12.90;;;;;;;;;;5010933;28;20496;-66
2023/05/02 08:24:23;;;;;;;13.00;12.40;;;;;;;;;;5009727;28;20014;-65
2023/05/02 08:26:49;;;;;;;13.45;12.75;;;;;;;;;;5006049;28;20058;-64
2023/05/02 08:29:15;;;;;;;12.88;12.27;;;;;;;;;;5007341;28;20025;-64
2023/05/02 08:31:40;;;;;;;13.55;12.85;;;;;;;;;;5010386;28;20046;-65
2023/05/02 08:34:05;;;;;;;13.93;13.23;;;;;;;;;;5010082;28;20106;-63
2023/05/02 08:36:31;;;;;;;13.73;13.02;;;;;;;;;;5007004;28;20477;-65
2023/05/02 08:38:56;;;;;;;13.82;13.13;;;;;;;;;;5010463;28;20029;-64
2023/05/02 08:41:22;;;;;;;12.77;12.18;;;;;;;;;;5014063;28;20108;-66
2023/05/02 08:43:47;;;;;;;13.35;12.65;;;;;;;;;;5014199;28;20025;-65
2023/05/02 08:46:14;;;;;;;14.18;13.40;;;;;;;;;;5007435;28;20461;-65
2023/05/02 08:48:41;;;;;;;13.02;12.43;;;;;;;;;;5013390;28;20010;-65
2023/05/02 08:51:13;;;;;;;13.60;12.90;;;;;;;;;;5006372;28;20026;-64
2023/05/02 08:53:39;;;;;;;12.63;12.02;;;;;;;;;;5013057;28;20018;-64
2023/05/02 08:56:08;;;;;;;12.80;12.20;;;;;;;;;;5010121;28;20018;-65
2023/05/02 08:58:34;;;;;;;13.45;12.75;;;;;;;;;;5012036;28;20018;-65
2023/05/02 09:01:01;;;;;;;13.73;13.02;;;;;;;;;;5009315;28;20022;-64
2023/05/02 09:03:33;;;;;;;12.80;12.20;;;;;;;;;;5013589;28;20513;-64
2023/05/02 09:06:18;;;;;;;13.02;12.38;;;;;;;;;;5011734;28;20022;-64
2023/05/02 09:08:45;;;;;;;14.38;13.57;;;;;;;;;;5012715;28;20095;-65
2023/05/02 09:11:11;;;;;;;13.32;12.63;;;;;;;;;;5012678;28;20171;-65
2023/05/02 09:13:46;;;;;;;13.32;12.63;;;;;;;;;;5012847;28;20171;-65
2023/05/02 09:16:15;;;;;;;12.57;11.98;;;;;;;;;;5013057;28;20156;-65
2023/05/02 09:18:41;;;;;;;13.30;12.60;;;;;;;;;;5012380;28;20022;-65
2023/05/02 09:21:08;;;;;;;13.35;12.65;;;;;;;;;;5012177;28;20081;-65
2023/05/02 09:23:37;;;;;;;12.27;11.68;;;;;;;;;;5013692;28;20482;-64
2023/05/02 09:26:12;;;;;;;12.73;12.13;;;;;;;;;;5013189;28;20028;-65
2023/05/02 09:28:37;;;;;;;;;;;;;;;;;;5012796;28;20022;-64
2023/05/02 09:31:05;;;;;;;12.97;12.33;;;;;;;;;;5012574;28;19931;-64
2023/05/02 09:33:30;;;;;;;13.20;12.50;;;;;;;;;;5005618;28;20034;-64
2023/05/02 09:35:56;;;;;;;12.90;12.30;;;;;;;;;;5013345;28;20461;-65
2023/05/02 09:38:22;;;;;;;14.45;13.65;;;;;;;;;;5011938;28;20018;-65
2023/05/02 09:40:54;;;;;;;12.70;12.10;;;;;;;;;;5000004;28;20022;-64
2023/05/02 09:43:20;;;;;;;12.57;11.98;;;;;;;;;;5007564;28;20050;-65
2023/05/02 09:46:06;;;;;;;13.57;12.88;;;;;;;;;;5007944;28;20050;-65
2023/05/02 09:48:49;;;;;;;13.02;12.38;;;;;;;;;;5007121;28;20079;-65
2023/05/02 09:51:19;;;;;;;13.40;12.70;;;;;;;;;;5003555;28;20022;-64
2023/05/02 09:53:44;;;;;;;13.00;12.35;;;;;;;;;;5012557;28;20379;-64
2023/05/02 09:56:10;;;;;;;12.55;11.95;;;;;;;;;;5013079;28;20053;-64
2023/05/02 09:58:35;;;;;;;12.48;11.88;;;;;;;;;;5007364;28;20013;-64
2023/05/02 10:01:01;;;;;;;13.10;12.40;;;;;;;;;;5010909;28;20022;-64
2023/05/02 10:03:27;;;;;;;12.60;12.00;;;;;;;;;;5012396;28;20057;-64
2023/05/02 10:05:55;;;;;;;12.20;11.60;;;;;;;;;;5011911;28;20021;-64
2023/05/02 10:08:21;;;;;;;12.70;12.10;;;;;;;;;;5012821;28;20464;-65
2023/05/02 10:10:56;;;;;;;12.88;12.25;;;;;;;;;;5006844;28;20505;-65
2023/05/02 10:13:25;;;;;;;12.07;11.48;;;;;;;;;;5011181;28;20504;-64
2023/05/02 10:15:57;;;;;;;12.73;12.13;;;;;;;;;;5003818;28;20456;-65
2023/05/02 10:18:40;;;;;;;12.70;12.10;;;;;;;;;;5011664;28;20108;-64
2023/05/02 10:21:07;;;;;;;13.27;12.57;;;;;;;;;;5008858;28;20026;-65
2023/05/02 10:23:33;;;;;;;13.02;12.32;;;;;;;;;;5011824;28;20026;-65
2023/05/02 10:25:58;;;;;;;13.25;12.55;;;;;;;;;;5004839;28;20081;-65
2023/05/02 10:28:25;;;;;;;13.10;12.43;;;;;;;;;;5012389;28;20045;-66
2023/05/02 10:30:50;;;;;;;13.15;12.45;;;;;;;;;;5011322;28;20046;-65
2023/05/02 10:33:18;;;;;;;12.57;11.98;;;;;;;;;;5012572;28;20056;-64
2023/05/02 10:35:45;;;;;;;13.10;12.40;;;;;;;;;;5010688;28;20021;-65
2023/05/02 10:38:11;;;;;;;13.25;12.55;;;;;;;;;;5011281;28;20513;-65
2023/05/02 10:40:37;;;;;;;12.70;12.10;;;;;;;;;;5005744;28;20131;-65
2023/05/02 10:43:03;;;;;;;13.23;12.52;;;;;;;;;;5009455;28;20016;-64
2023/05/02 10:45:31;;;;;;;13.40;12.70;;;;;;;;;;5012209;28;20477;-65
2023/05/02 10:48:13;;;;;;;12.60;12.00;;;;;;;;;;5000853;28;20149;-65
2023/05/02 10:50:42;;;;;;;13.70;13.00;;;;;;;;;;5011429;28;20018;-65
2023/05/02 10:53:24;;;;;;;12.82;12.23;;;;;;;;;;5006516;28;20062;-65
2023/05/02 10:56:09;;;;;;;12.75;12.15;;;;;;;;;;5010410;28;20045;-64
2023/05/02 10:58:35;;;;;;;13.40;12.70;;;;;;;;;;5006074;28;20093;-64
2023/05/02 11:01:19;;;;;;;13.23;12.52;;;;;;;;;;5005954;28;20517;-65
2023/05/02 11:03:59;;;;;;;12.43;11.82;;;;;;;;;;5011645;28;20529;-65
2023/05/02 11:06:26;;;;;;;12.88;12.27;;;;;;;;;;5009128;28;20048;-65
2023/05/02 11:08:51;;;;;;;13.00;12.32;;;;;;;;;;5011236;28;20026;-65
2023/05/02 11:11:35;;;;;;;13.45;12.75;;;;;;;;;;5010991;28;20040;-65
2023/05/02 11:14:01;;;;;;;12.50;11.90;;;;;;;;;;5011324;28;20022;-65
2023/05/02 11:16:26;;;;;;;12.75;12.15;;;;;;;;;;5004280;28;20342;-65
2023/05/02 11:18:57;;;;;;;13.57;12.88;;;;;;;;;;5011377;28;20444;-65
2023/05/02 11:21:28;;;;;;;13.75;13.05;;;;;;;;;;5010155;28;20026;-65
2023/05/02 11:24:13;;;;;;;12.85;12.25;;;;;;;;;;5011385;28;20030;-64
2023/05/02 11:26:38;;;;;;;12.30;11.70;;;;;;;;;;5007300;28;20030;-64
2023/05/02 11:29:03;;;;;;;13.70;13.00;;;;;;;;;;5010688;28;20543;-64
2023/05/02 11:31:29;;;;;;;12.73;12.13;;;;;;;;;;5008090;28;20082;-64
2023/05/02 11:33:58;;;;;;;13.18;12.48;;;;;;;;;;5005763;28;20561;-65
2023/05/02 11:36:28;;;;;;;12.40;11.80;;;;;;;;;;5006253;28;20025;-65
2023/05/02 11:38:53;;;;;;;12.80;12.20;;;;;;;;;;5010054;28;20018;-64
2023/05/02 11:41:19;;;;;;;13.23;12.52;;;;;;;;;;4999893;28;20033;-65
2023/05/02 11:43:45;;;;;;;12.60;12.00;;;;;;;;;;5007776;28;20093;-67
2023/05/02 11:46:10;;;;;;;12.50;11.90;;;;;;;;;;5011508;28;20022;-64
2023/05/02 11:48:35;;;;;;;12.63;12.02;;;;;;;;;;5011322;28;20026;-65
2023/05/02 11:51:03;;;;;;;13.07;12.43;;;;;;;;;;5004655;28;20468;-66
2023/05/02 11:53:30;;;;;;;12.77;12.18;;;;;;;;;;5010663;28;20018;-64
2023/05/02 11:55:56;;;;;;;13.45;12.75;;;;;;;;;;5010950;28;20025;-64
2023/05/02 11:58:22;;;;;;;13.30;12.60;;;;;;;;;;5004464;28;20023;-64
2023/05/02 12:00:48;;;;;;;13.50;12.80;;;;;;;;;;5009654;28;20029;-64
2023/05/02 12:03:23;;;;;;;13.40;12.70;;;;;;;;;;5009856;28;20057;-64
2023/05/02 12:05:49;;;;;;;12.98;12.32;;;;;;;;;;5008412;28;20025;-65
2023/05/02 12:08:18;;;;;;;13.90;13.20;;;;;;;;;;5006762;28;20018;-64
2023/05/02 12:10:44;;;;;;;12.88;12.27;;;;;;;;;;5012168;28;20397;-64
2023/05/02 12:13:10;;;;;;;13.35;12.65;;;;;;;;;;5003958;28;20064;-65
2023/05/02 12:15:35;;;;;;;13.43;12.73;;;;;;;;;;5014683;28;20022;-64
2023/05/02 12:18:01;;;;;;;14.50;13.70;;;;;;;;;;5011444;28;20418;-63
2023/05/02 12:20:26;;;;;;;13.55;12.85;;;;;;;;;;5014148;28;20042;-64
2023/05/02 12:22:52;;;;;;;13.65;12.95;;;;;;;;;;5013628;28;20010;-63
2023/05/02 12:25:17;;;;;;;12.73;12.13;;;;;;;;;;5014153;28;20104;-65
2023/05/02 12:27:57;;;;;;;13.43;12.73;;;;;;;;;;5013887;28;20050;-65
2023/05/02 12:30:26;;;;;;;13.68;12.98;;;;;;;;;;5006030;28;20019;-64
2023/05/02 12:32:55;;;;;;;13.48;12.77;;;;;;;;;;5017217;28;20025;-64
2023/05/02 12:35:21;;;;;;;13.48;12.77;;;;;;;;;;5013203;28;20026;-65
2023/05/02 12:37:47;;;;;;;14.73;13.93;;;;;;;;;;5012027;28;20034;-65
2023/05/02 12:40:16;;;;;;;13.55;12.85;;;;;;;;;;5008195;28;20010;-65
2023/05/02 12:42:42;;;;;;;12.77;12.18;;;;;;;;;;5013525;28;20034;-65
2023/05/02 12:45:17;;;;;;;12.55;11.95;;;;;;;;;;5014013;28;20370;-64
2023/05/02 12:47:45;;;;;;;12.55;11.95;;;;;;;;;;5012361;28;20503;-64
2023/05/02 12:50:10;;;;;;;13.98;13.27;;;;;;;;;;5009529;28;20049;-65
2023/05/02 12:52:50;;;;;;;12.93;12.27;;;;;;;;;;5012741;28;20057;-64
2023/05/02 12:55:19;;;;;;;12.57;11.98;;;;;;;;;;5006407;28;20026;-64
2023/05/02 12:57:44;;;;;;;12.05;11.45;;;;;;;;;;5014415;28;20022;-65
2023/05/02 13:00:10;;;;;;;13.07;12.48;;;;;;;;;;5011942;28;20045;-65
2023/05/02 13:02:35;;;;;;;12.50;11.90;;;;;;;;;;5014093;28;20536;-64
2023/05/02 13:05:00;;;;;;;13.45;12.75;;;;;;;;;;5011990;28;20420;-65
2023/05/02 13:07:26;;;;;;;13.27;12.57;;;;;;;;;;5012840;28;20032;-64
2023/05/02 13:09:51;;;;;;;13.90;13.18;;;;;;;;;;5011315;28;20018;-65
2023/05/02 13:12:16;;;;;;;12.50;11.90;;;;;;;;;;5013887;28;20060;-65
2023/05/02 13:14:42;;;;;;;13.23;12.52;;;;;;;;;;5013302;28;20659;-64
2023/05/02 13:17:07;;;;;;;12.85;12.25;;;;;;;;;;5004281;28;20484;-64
2023/05/02 13:19:33;;;;;;;13.18;12.48;;;;;;;;;;5012620;28;20026;-64
2023/05/02 13:21:58;;;;;;;13.30;12.60;;;;;;;;;;5005627;28;20475;-63
2023/05/02 13:24:23;;;;;;;13.35;12.65;;;;;;;;;;5010716;28;20632;-63
2023/05/02 13:26:49;;;;;;;12.68;12.07;;;;;;;;;;5012679;28;20021;-65
2023/05/02 13:29:15;;;;;;;13.85;13.15;;;;;;;;;;5007790;28;20478;-65
2023/05/02 13:31:40;;;;;;;12.95;12.32;;;;;;;;;;5011507;28;20109;-65
2023/05/02 13:34:05;;;;;;;13.38;12.68;;;;;;;;;;5012930;28;20018;-66
2023/05/02 13:36:32;;;;;;;14.02;13.32;;;;;;;;;;5005373;28;20022;-65
2023/05/02 13:38:57;;;;;;;12.77;12.18;;;;;;;;;;5002257;28;20048;-65
2023/05/02 13:41:25;;;;;;;12.65;12.05;;;;;;;;;;5006433;28;20371;-64
2023/05/02 13:43:51;;;;;;;12.77;12.18;;;;;;;;;;5009958;28;20026;-65
2023/05/02 13:46:16;;;;;;;13.63;12.93;;;;;;;;;;5002408;28;20105;-64
2023/05/02 13:48:41;;;;;;;13.23;12.52;;;;;;;;;;5007613;28;20022;-65
2023/05/02 13:51:07;;;;;;;13.57;12.88;;;;;;;;;;4997979;28;20305;-65
2023/05/02 13:53:32;;;;;;;13.25;12.55;;;;;;;;;;5001610;28;20381;-64
2023/05/02 13:55:58;;;;;;;12.95;12.30;;;;;;;;;;5011499;28;20010;-64
2023/05/02 13:58:23;;;;;;;13.50;12.80;;;;;;;;;;5009921;28;20026;-64
2023/05/02 14:00:48;;;;;;;12.35;11.75;;;;;;;;;;5011839;28;20026;-64
2023/05/02 14:03:14;;;;;;;13.98;13.25;;;;;;;;;;5012209;28;20048;-65
2023/05/02 14:05:42;;;;;;;12.95;12.30;;;;;;;;;;5012977;28;20018;-64
2023/05/02 14:08:08;;;;;;;13.48;12.77;;;;;;;;;;5008977;28;20030;-65
2023/05/02 14:10:35;;;;;;;13.25;12.57;;;;;;;;;;5008358;28;20034;-66
2023/05/02 14:13:00;;;;;;;13.18;12.48;;;;;;;;;;5008276;28;20120;-65
2023/05/02 14:15:25;;;;;;;13.05;12.35;;;;;;;;;;5012310;28;20164;-66
2023/05/02 14:17:51;;;;;;;12.68;12.07;;;;;;;;;;5009497;28;20358;-64